Terminal Aerodrome Forecast
Issued by NWS

Home | Current Version | Previous Version | Text Only | Print | Product List | Glossary On
Versions: 1 2 3 4 5 6 7 8 9 10 11 12 13 14 15 16 17 18 19
000
FTUS43 KGRB 181700
TAFAUW
TAF
KAUW 181720Z 1818/1918 34007KT P6SM SCT100 SCT250
     FM182300 07006KT P6SM BKN090
     FM190400 11006KT P6SM BKN080
     FM191100 12010KT P6SM SCT080 BKN140 WS015/14035KT
     FM191500 15014G22KT P6SM SCT040 BKN100=

USA.gov is the U.S. government's official web portal to all federal, state and local government web resources and services.